Time;durP1;ratioP1;P1;durP2;ratioP2;P2;SDS_P1;SDS_P2;PMS_P1;PMS_P2;Temp;Humidity;BMP_temperature;BMP_pressure;BME280_temperature;BME280_humidity;BME280_pressure;Samples;Min_cycle;Max_cycle;Signal;HPM_P1;HPM_P2
2024/02/23 00:01:06;;;;;;;1.45;0.63;;;;;;;8.29;60.04;98752.88;4832485;29;123786;-77
2024/02/23 00:03:36;;;;;;;1.80;0.80;;;;;;;8.30;60.39;98754.53;4833813;29;124406;-78
2024/02/23 00:06:04;;;;;;;1.13;0.50;;;;;;;8.31;60.24;98767.63;4831589;29;114208;-78
2024/02/23 00:08:32;;;;;;;4.22;0.77;;;;;;;8.30;60.37;98765.91;4834433;29;114532;-77
2024/02/23 00:11:01;;;;;;;2.55;0.80;;;;;;;8.30;60.54;98765.91;4820186;29;122779;-78
2024/02/23 00:13:29;;;;;;;2.00;0.90;;;;;;;8.31;60.54;98767.63;4837097;29;123955;-77
2024/02/23 00:16:01;;;;;;;1.92;0.80;;;;;;;8.30;60.42;98771.19;4838907;29;113670;-78
2024/02/23 00:18:29;;;;;;;3.85;0.80;;;;;;;8.32;60.15;98779.84;4829823;29;114050;-78
2024/02/23 00:20:56;;;;;;;2.80;0.95;;;;;;;8.34;60.55;98767.41;4836113;29;124605;-78
2024/02/23 00:23:24;;;;;;;4.10;1.30;;;;;;;8.34;60.43;98777.97;4838654;29;123994;-78
2024/02/23 00:25:51;;;;;;;3.90;1.40;;;;;;;8.34;60.18;98785.88;4831440;29;115058;-78
2024/02/23 00:28:24;;;;;;;3.00;1.40;;;;;;;8.34;60.29;98772.69;4830442;29;115048;-78
2024/02/23 00:30:52;;;;;;;2.15;1.45;;;;;;;8.34;60.33;98788.53;4825454;29;124002;-78
2024/02/23 00:33:22;;;;;;;7.03;2.15;;;;;;;8.34;60.45;98788.53;4822795;29;122871;-78
2024/02/23 00:35:49;;;;;;;3.33;1.90;;;;;;;8.35;60.41;98789.34;4833545;29;114762;-78
2024/02/23 00:38:18;;;;;;;4.47;1.85;;;;;;;8.35;60.23;98795.47;4831652;29;114379;-79
2024/02/23 00:40:46;;;;;;;4.90;1.90;;;;;;;8.36;60.40;98802.44;4838614;29;124571;-79
2024/02/23 00:43:15;;;;;;;4.13;2.03;;;;;;;8.36;60.68;98797.16;4836135;29;97172;-79
2024/02/23 00:45:43;;;;;;;4.80;1.88;;;;;;;8.38;60.33;98805.81;4829887;29;114598;-80
2024/02/23 00:48:12;;;;;;;3.47;1.70;;;;;;;8.41;60.72;98798.66;4831485;29;114290;-78
2024/02/23 00:50:39;;;;;;;3.65;1.70;;;;;;;8.41;60.71;98804.75;4849609;29;124063;-78
2024/02/23 00:53:08;;;;;;;3.30;1.83;;;;;;;8.44;60.93;98814.28;4849209;29;124458;-79
2024/02/23 00:55:35;;;;;;;6.32;2.00;;;;;;;8.46;60.80;98807.13;4832613;29;114519;-78
2024/02/23 00:58:03;;;;;;;3.72;1.65;;;;;;;8.48;60.53;98815.78;4829357;29;113754;-79
2024/02/23 01:00:31;;;;;;;4.63;1.50;;;;;;;8.50;60.55;98819.16;4840087;29;124711;-79
2024/02/23 01:02:59;;;;;;;2.85;1.25;;;;;;;8.51;60.58;98821.69;4832160;29;124466;-79
2024/02/23 01:05:29;;;;;;;2.92;1.40;;;;;;;8.53;60.74;98825.06;4838910;29;114494;-79
2024/02/23 01:07:56;;;;;;;4.50;1.40;;;;;;;8.55;60.72;98822.28;4840068;29;113924;-77
2024/02/23 01:10:27;;;;;;;4.40;1.30;;;;;;;8.57;60.63;98836.25;4834502;29;123694;-78
2024/02/23 01:12:54;;;;;;;3.22;1.00;;;;;;;8.59;60.67;98834.34;4820226;29;124227;-78
2024/02/23 01:15:22;;;;;;;3.72;1.30;;;;;;;8.60;60.79;98832.53;4839274;29;114598;-78
2024/02/23 01:17:49;;;;;;;4.80;1.30;;;;;;;8.60;60.79;98840.44;4837173;29;115260;-78
2024/02/23 01:20:17;;;;;;;4.03;1.10;;;;;;;8.62;60.40;98844.66;4832068;29;124206;-77
2024/02/23 01:22:44;;;;;;;3.63;1.45;;;;;;;8.64;60.42;98836.66;4827719;29;122883;-78
2024/02/23 01:25:15;;;;;;;6.70;1.10;;;;;;;8.63;60.37;98843.72;4834898;29;114614;-79
2024/02/23 01:27:44;;;;;;;4.47;0.90;;;;;;;8.63;60.57;98843.72;4829654;29;114542;-79
2024/02/23 01:30:15;;;;;;;3.08;1.00;;;;;;;8.63;60.80;98851.66;4830815;29;124641;-79
2024/02/23 01:32:42;;;;;;;5.10;1.10;;;;;;;8.65;60.49;98844.47;4828764;29;123975;-79
2024/02/23 01:35:10;;;;;;;3.53;1.05;;;;;;;8.66;60.37;98848.78;4838225;29;114283;-79
2024/02/23 01:37:37;;;;;;;2.65;0.82;;;;;;;8.68;60.29;98852.19;4832876;29;113396;-79
2024/02/23 01:40:06;;;;;;;5.10;0.80;;;;;;;8.69;60.43;98850.38;4835927;29;124561;-79
2024/02/23 01:42:33;;;;;;;3.25;1.10;;;;;;;8.70;60.36;98852.03;4835327;29;124593;-79
2024/02/23 01:45:01;;;;;;;5.75;1.13;;;;;;;8.70;60.64;98842.34;4830260;29;114522;-79
2024/02/23 01:47:29;;;;;;;3.25;0.85;;;;;;;8.72;60.27;98851.00;4829253;29;112977;-78
2024/02/23 01:49:59;;;;;;;5.00;0.98;;;;;;;8.72;60.19;98856.28;4837878;29;124253;-78
2024/02/23 01:52:27;;;;;;;4.22;1.13;;;;;;;8.71;60.15;98849.31;4832202;29;122872;-78
2024/02/23 01:55:00;;;;;;;5.20;0.80;;;;;;;8.71;60.27;98854.59;4838572;29;114348;-79
2024/02/23 01:57:28;;;;;;;6.13;0.90;;;;;;;8.74;60.19;98869.38;4840665;29;114296;-78
2024/02/23 02:00:18;;;;;;;4.28;0.85;;;;;;;8.74;60.07;98875.50;4840348;29;124012;-79
2024/02/23 02:02:51;;;;;;;5.13;0.90;;;;;;;8.75;60.25;98876.34;4832903;29;124775;-79
2024/02/23 02:05:19;;;;;;;3.67;0.90;;;;;;;8.75;59.82;98877.16;4836353;29;115536;-78
2024/02/23 02:07:50;;;;;;;4.57;0.80;;;;;;;8.74;60.17;98880.78;4839184;29;114099;-78
2024/02/23 02:10:18;;;;;;;4.30;1.10;;;;;;;8.75;59.84;98866.63;4826558;29;124610;-79
2024/02/23 02:12:45;;;;;;;4.00;0.85;;;;;;;8.76;60.03;98873.59;4840516;29;123786;-78
2024/02/23 02:15:21;;;;;;;7.50;1.02;;;;;;;8.76;60.00;98878.88;4829917;29;114816;-79
2024/02/23 02:17:49;;;;;;;4.65;0.70;;;;;;;8.79;59.87;98871.69;4842249;29;113964;-79
2024/02/23 02:20:18;;;;;;;2.58;0.68;;;;;;;8.79;59.94;98880.44;4841269;29;124633;-79
2024/02/23 02:22:46;;;;;;;5.20;1.00;;;;;;;8.79;59.89;98888.38;4840408;29;124727;-79
2024/02/23 02:25:15;;;;;;;2.35;0.80;;;;;;;8.78;59.82;98881.41;4841707;29;113534;-79
2024/02/23 02:27:45;;;;;;;5.47;0.90;;;;;;;8.80;59.79;98889.19;4841022;29;113983;-79
2024/02/23 02:30:14;;;;;;;4.03;0.90;;;;;;;8.80;59.76;98890.06;4840418;29;124143;-79
2024/02/23 02:32:42;;;;;;;3.70;0.95;;;;;;;8.80;59.86;98899.75;4837136;29;124292;-79
2024/02/23 02:35:15;;;;;;;7.35;1.10;;;;;;;8.81;59.83;98901.47;4840450;29;114749;-80
2024/02/23 02:37:42;;;;;;;3.33;0.90;;;;;;;8.80;59.63;98908.53;4843559;29;112315;-81
2024/02/23 02:40:10;;;;;;;6.78;1.10;;;;;;;8.80;59.92;98883.91;4836303;29;124766;-79
2024/02/23 02:42:39;;;;;;;3.47;1.05;;;;;;;8.79;59.49;98908.63;4836141;29;124082;-79
2024/02/23 02:45:07;;;;;;;4.72;0.70;;;;;;;8.79;59.82;98913.91;4829128;29;114647;-79
2024/02/23 02:47:36;;;;;;;4.03;0.90;;;;;;;8.76;59.41;98900.00;4830309;29;114039;-80
2024/02/23 02:50:06;;;;;;;3.22;0.90;;;;;;;8.75;59.72;98903.56;4829768;29;124391;-79
2024/02/23 02:52:34;;;;;;;4.80;1.00;;;;;;;8.75;59.53;98913.28;4840704;29;123054;-79
2024/02/23 02:55:02;;;;;;;4.95;0.77;;;;;;;8.74;59.37;98917.72;4827328;29;115193;-79
2024/02/23 02:57:29;;;;;;;6.18;0.80;;;;;;;8.76;59.34;98926.38;4837023;29;115203;-78
2024/02/23 02:59:57;;;;;;;4.22;0.90;;;;;;;8.75;59.22;98919.41;4832428;29;124326;-79
2024/02/23 03:02:31;;;;;;;2.03;0.95;;;;;;;8.75;59.11;98923.84;4839658;29;123847;-79
2024/02/23 03:04:59;;;;;;;3.30;0.63;;;;;;;8.73;59.49;98926.59;4851467;29;113737;-79
2024/02/23 03:07:26;;;;;;;3.53;0.70;;;;;;;8.71;59.09;98933.75;4837599;29;113889;-79
2024/02/23 03:09:54;;;;;;;3.30;0.75;;;;;;;8.72;59.23;98927.53;4840053;29;124199;-79
2024/02/23 03:12:22;;;;;;;4.15;1.08;;;;;;;8.70;59.35;98936.50;4838863;29;123206;-78
2024/02/23 03:14:49;;;;;;;1.20;0.60;;;;;;;8.69;59.39;98930.38;4834470;29;114588;-79
2024/02/23 03:17:17;;;;;;;2.88;0.75;;;;;;;8.67;59.10;98927.00;4840281;29;114255;-79
2024/02/23 03:19:44;;;;;;;5.45;0.98;;;;;;;8.68;59.07;98923.44;4837562;29;123821;-79
2024/02/23 03:22:14;;;;;;;1.98;0.63;;;;;;;8.67;59.13;98934.09;4817336;29;122122;-79
2024/02/23 03:24:41;;;;;;;5.72;0.90;;;;;;;8.64;59.20;98927.19;4834813;29;114506;-79
2024/02/23 03:27:08;;;;;;;6.57;0.93;;;;;;;8.64;59.38;98937.75;4830605;29;114172;-79
2024/02/23 03:29:38;;;;;;;3.78;0.95;;;;;;;8.64;59.13;98936.91;4838760;29;124086;-79
2024/02/23 03:32:06;;;;;;;5.22;0.80;;;;;;;8.64;59.36;98948.31;4834431;29;124063;-79
2024/02/23 03:34:34;;;;;;;4.32;1.00;;;;;;;8.63;59.64;98940.53;4839603;29;114304;-79
2024/02/23 03:37:02;;;;;;;4.20;1.05;;;;;;;8.63;59.48;98941.38;4834324;29;114062;-79
2024/02/23 03:39:32;;;;;;;5.95;0.90;;;;;;;8.62;59.49;98952.84;4828493;29;124132;-80
2024/02/23 03:42:00;;;;;;;3.90;0.90;;;;;;;8.62;59.25;98950.22;4828759;29;123793;-79
2024/02/23 03:44:28;;;;;;;4.78;0.82;;;;;;;8.64;59.39;98958.03;4833943;29;115471;-79
2024/02/23 03:46:55;;;;;;;2.10;0.65;;;;;;;8.63;59.45;98951.91;4831865;29;114808;-79
2024/02/23 03:49:25;;;;;;;4.38;0.70;;;;;;;8.62;59.19;98955.50;4832893;29;124292;-80
2024/02/23 03:51:52;;;;;;;3.60;0.80;;;;;;;8.61;59.10;98959.09;4840722;29;123096;-79
2024/02/23 03:54:23;;;;;;;5.13;0.82;;;;;;;8.61;59.21;98959.09;4840608;29;114050;-81
2024/02/23 03:56:50;;;;;;;3.85;1.00;;;;;;;8.62;59.19;98966.03;4843911;29;113055;-81
2024/02/23 03:59:18;;;;;;;4.75;0.93;;;;;;;8.62;59.21;98960.78;4835300;29;124202;-80
2024/02/23 04:01:45;;;;;;;4.30;0.98;;;;;;;8.62;59.34;98963.41;4834513;29;123276;-80
2024/02/23 04:04:14;;;;;;;2.75;1.08;;;;;;;8.62;59.21;98966.03;4837924;29;114710;-81
2024/02/23 04:06:42;;;;;;;5.93;0.95;;;;;;;8.62;59.33;98971.31;4846117;29;114431;-81
2024/02/23 04:09:09;;;;;;;3.05;0.80;;;;;;;8.62;59.18;98968.69;4843414;29;124683;-82
2024/02/23 04:11:37;;;;;;;3.90;1.10;;;;;;;8.62;59.11;98966.03;4838080;29;123825;-81
2024/02/23 04:14:07;;;;;;;4.38;0.95;;;;;;;8.63;59.32;98977.47;4840501;29;114913;-81
2024/02/23 04:16:34;;;;;;;4.05;0.88;;;;;;;8.64;59.51;98973.88;4858098;28;114838;-82
2024/02/23 04:19:04;;;;;;;3.38;1.00;;;;;;;8.64;59.29;98977.34;4854355;28;123401;-80
2024/02/23 04:21:31;;;;;;;4.53;0.90;;;;;;;8.67;59.43;98982.44;4836344;29;124745;-80
2024/02/23 04:24:00;;;;;;;5.15;1.00;;;;;;;8.68;59.20;98981.50;4855348;29;114653;-80
2024/02/23 04:26:27;;;;;;;2.85;0.85;;;;;;;8.70;59.49;98990.16;4836854;29;113791;-80
2024/02/23 04:28:55;;;;;;;5.20;1.05;;;;;;;8.71;59.15;98986.53;4834431;29;123998;-79
2024/02/23 04:31:25;;;;;;;8.60;1.33;;;;;;;8.74;59.25;98985.50;4825685;29;124164;-79
2024/02/23 04:33:52;;;;;;;8.43;1.20;;;;;;;8.76;59.34;98983.63;4833248;29;115397;-79
2024/02/23 04:36:21;;;;;;;5.35;1.17;;;;;;;8.77;59.04;98988.75;4840355;29;114384;-79
2024/02/23 04:38:48;;;;;;;5.88;1.35;;;;;;;8.76;59.18;98995.00;4832469;29;124159;-79
2024/02/23 04:41:24;;;;;;;5.95;1.30;;;;;;;8.76;59.25;98995.00;4835924;29;123835;-79
2024/02/23 04:43:53;;;;;;;2.85;1.20;;;;;;;8.76;59.18;99000.28;4837920;29;113788;-80
2024/02/23 04:46:20;;;;;;;5.93;1.27;;;;;;;8.76;59.05;99005.56;4829230;29;114052;-79
2024/02/23 04:48:48;;;;;;;4.32;1.38;;;;;;;8.76;59.41;99010.84;4826175;29;124544;-80
2024/02/23 04:51:15;;;;;;;3.20;1.13;;;;;;;8.78;59.23;99008.09;4839957;29;124063;-80
2024/02/23 04:53:42;;;;;;;5.18;1.42;;;;;;;8.80;59.42;99005.34;4839863;29;114550;-80
2024/02/23 04:56:10;;;;;;;8.40;1.23;;;;;;;8.81;59.33;99001.75;4828639;29;114058;-79
2024/02/23 04:58:37;;;;;;;8.15;1.27;;;;;;;8.82;59.24;99003.47;4847773;29;124166;-80
2024/02/23 05:01:04;;;;;;;7.13;1.45;;;;;;;8.84;59.52;99006.84;4847772;29;124591;-79
2024/02/23 05:03:32;;;;;;;7.93;1.40;;;;;;;8.86;59.32;99004.94;4833334;29;114678;-79
2024/02/23 05:05:59;;;;;;;4.40;1.17;;;;;;;8.86;59.10;99012.88;4825900;29;114487;-79
2024/02/23 05:08:30;;;;;;;3.55;1.15;;;;;;;8.88;59.02;99013.59;4835753;29;123002;-79
2024/02/23 05:10:57;;;;;;;5.00;1.35;;;;;;;8.90;59.13;99019.63;4837842;29;124274;-79
2024/02/23 05:13:25;;;;;;;3.70;0.80;;;;;;;8.92;59.33;99015.09;4820815;29;113782;-79
2024/02/23 05:15:56;;;;;;;6.95;1.33;;;;;;;8.92;59.45;99009.81;4832034;29;114062;-79
2024/02/23 05:18:29;;;;;;;3.60;1.08;;;;;;;8.93;59.14;99012.34;4831687;29;124103;-79
2024/02/23 05:20:56;;;;;;;4.82;1.15;;;;;;;8.95;59.51;99009.59;4840136;29;123221;-79
2024/02/23 05:23:23;;;;;;;5.80;1.30;;;;;;;8.96;59.16;99006.00;4837022;29;116204;-79
2024/02/23 05:25:52;;;;;;;3.95;1.30;;;;;;;8.99;59.19;99007.59;4828898;29;114880;-78
2024/02/23 05:28:19;;;;;;;3.92;0.80;;;;;;;9.00;59.10;99012.75;4854512;29;124040;-80
2024/02/23 05:31:10;;;;;;;5.03;1.02;;;;;;;9.01;59.29;99009.19;4835887;29;123246;-79
2024/02/23 05:33:38;;;;;;;8.65;1.00;;;;;;;9.03;59.26;99015.19;4837731;29;115113;-79
2024/02/23 05:36:07;;;;;;;5.85;0.82;;;;;;;9.07;59.30;99010.56;4835583;29;113180;-79
2024/02/23 05:38:35;;;;;;;4.18;0.98;;;;;;;9.09;59.18;99000.72;4829319;29;123029;-79
2024/02/23 05:41:04;;;;;;;6.82;1.00;;;;;;;9.11;59.33;99010.22;4840470;29;124239;-79
2024/02/23 05:43:35;;;;;;;4.60;0.95;;;;;;;9.13;59.01;99013.59;4840440;29;114961;-80
2024/02/23 05:46:02;;;;;;;5.65;1.25;;;;;;;9.14;59.31;99004.75;4840768;29;113990;-79
2024/02/23 05:48:29;;;;;;;5.15;1.25;;;;;;;9.18;59.12;99009.84;4836356;29;124396;-79
2024/02/23 05:51:00;;;;;;;4.07;1.00;;;;;;;9.20;59.00;99018.50;4832556;29;123711;-80
2024/02/23 05:53:31;;;;;;;7.38;1.10;;;;;;;9.23;58.89;99011.19;4838496;29;114319;-80
2024/02/23 05:55:59;;;;;;;6.22;1.10;;;;;;;9.26;58.90;99012.78;4843572;29;114195;-80
2024/02/23 05:58:27;;;;;;;4.90;1.08;;;;;;;9.27;58.98;99009.19;4840151;29;123455;-80
2024/02/23 06:00:54;;;;;;;5.38;0.95;;;;;;;9.30;59.02;99014.25;4840796;29;124359;-80
2024/02/23 06:03:26;;;;;;;3.45;1.08;;;;;;;9.33;58.79;99004.31;4838652;29;114256;-79
2024/02/23 06:05:54;;;;;;;5.60;0.90;;;;;;;9.36;58.83;99008.53;4839111;29;114418;-79
2024/02/23 06:08:32;;;;;;;4.10;0.90;;;;;;;9.37;58.71;98999.66;4843780;29;124411;-79
2024/02/23 06:11:00;;;;;;;4.72;1.02;;;;;;;9.40;58.63;99007.41;4857638;29;122952;-80
2024/02/23 06:13:30;;;;;;;5.55;1.65;;;;;;;9.40;58.77;98988.91;4837000;29;115598;-80
2024/02/23 06:15:58;;;;;;;0.52;0.40;;;;;;;9.42;58.88;98992.28;4838542;29;115182;-80
2024/02/23 06:18:26;;;;;;;4.68;0.80;;;;;;;9.45;58.89;98992.03;4830033;29;123927;-80
2024/02/23 06:20:53;;;;;;;3.25;0.85;;;;;;;9.47;58.96;98990.13;4856465;29;123934;-80
2024/02/23 06:23:22;;;;;;;1.80;0.60;;;;;;;9.48;59.04;98989.19;4838072;29;114590;-80
2024/02/23 06:25:49;;;;;;;4.07;0.90;;;;;;;9.50;59.02;98989.94;4841084;29;113593;-80
2024/02/23 06:28:17;;;;;;;2.15;0.60;;;;;;;9.53;58.92;99000.28;4841077;29;124241;-80
2024/02/23 06:30:44;;;;;;;5.15;0.75;;;;;;;9.54;58.84;98991.41;4827303;29;123525;-80
2024/02/23 06:33:11;;;;;;;3.75;0.90;;;;;;;9.54;58.96;98991.41;4841624;29;114287;-80
2024/02/23 06:35:43;;;;;;;3.70;0.73;;;;;;;9.54;58.63;98986.09;4835004;29;112568;-81
2024/02/23 06:38:11;;;;;;;4.78;0.65;;;;;;;9.57;58.77;98990.34;4840361;29;124141;-81
2024/02/23 06:40:38;;;;;;;5.50;0.95;;;;;;;9.60;58.75;98991.91;4829683;29;124210;-81
2024/02/23 06:43:19;;;;;;;3.30;0.60;;;;;;;9.60;58.73;98999.84;4833254;29;113935;-81
2024/02/23 06:45:49;;;;;;;2.83;0.70;;;;;;;9.62;58.67;99003.22;4857720;29;114392;-81
2024/02/23 06:48:24;;;;;;;1.92;0.82;;;;;;;9.63;58.72;99012.88;4849991;29;124470;-82
2024/02/23 06:50:57;;;;;;;3.67;0.68;;;;;;;9.64;58.78;99002.16;4835691;29;125442;-82
2024/02/23 06:53:25;;;;;;;3.55;0.90;;;;;;;9.65;58.71;98992.44;4847226;29;113730;-81
2024/02/23 06:55:52;;;;;;;3.72;0.73;;;;;;;9.67;58.50;98995.81;4850374;29;113087;-81
2024/02/23 06:58:20;;;;;;;1.30;0.60;;;;;;;9.69;58.68;98993.91;4853224;29;123177;-81
2024/02/23 07:00:48;;;;;;;1.48;0.38;;;;;;;9.68;58.43;98993.06;4859891;29;124511;-80
2024/02/23 07:03:16;;;;;;;3.65;0.80;;;;;;;9.71;58.47;98989.38;4828536;29;115695;-80
2024/02/23 07:05:49;;;;;;;4.75;1.02;;;;;;;9.72;58.57;98993.72;4836600;29;115244;-79
2024/02/23 07:08:17;;;;;;;4.13;0.85;;;;;;;9.72;58.68;98988.41;4839532;29;122941;-81
2024/02/23 07:10:45;;;;;;;3.40;0.82;;;;;;;9.72;58.36;98989.25;4827415;29;123233;-80
2024/02/23 07:13:12;;;;;;;1.15;0.60;;;;;;;9.75;58.55;98982.91;4837506;29;114623;-81
2024/02/23 07:15:40;;;;;;;3.28;0.70;;;;;;;9.76;58.45;98984.59;4835087;29;114299;-82
2024/02/23 07:18:08;;;;;;;2.58;0.90;;;;;;;9.77;58.56;98986.28;4818283;29;122059;-79
2024/02/23 07:20:36;;;;;;;3.60;0.75;;;;;;;9.77;58.25;98996.84;4830324;29;123946;-80
2024/02/23 07:23:06;;;;;;;3.80;0.98;;;;;;;9.79;58.29;98994.94;4837724;29;114845;-81
2024/02/23 07:25:33;;;;;;;3.00;0.90;;;;;;;9.81;58.37;99003.59;4837235;29;113155;-81
2024/02/23 07:28:02;;;;;;;6.25;0.90;;;;;;;9.83;58.21;98996.44;4835893;29;123723;-80
2024/02/23 07:30:29;;;;;;;3.72;1.00;;;;;;;9.85;58.20;99005.09;4839940;29;124111;-80
2024/02/23 07:32:57;;;;;;;3.05;0.75;;;;;;;9.86;58.09;99006.75;4836387;29;113498;-80
2024/02/23 07:35:24;;;;;;;3.28;0.90;;;;;;;9.87;58.05;99008.47;4838658;29;114081;-80
2024/02/23 07:37:55;;;;;;;5.35;1.00;;;;;;;9.88;58.09;99002.22;4833760;29;123600;-81
2024/02/23 07:40:22;;;;;;;3.67;0.93;;;;;;;9.91;58.14;99002.00;4834388;29;123016;-80
2024/02/23 07:42:50;;;;;;;6.28;0.90;;;;;;;9.92;58.07;98995.75;4835470;29;114871;-79
2024/02/23 07:45:19;;;;;;;3.10;0.75;;;;;;;9.92;58.09;98995.75;4840527;29;114069;-82
2024/02/23 07:47:52;;;;;;;4.43;0.70;;;;;;;9.94;58.12;99004.44;4850423;29;123182;-82
2024/02/23 07:50:20;;;;;;;6.45;0.95;;;;;;;9.96;58.22;99016.69;4861622;29;122779;-82
2024/02/23 07:52:50;;;;;;;6.88;1.02;;;;;;;9.98;58.13;99009.47;4843416;29;113791;-82
2024/02/23 07:55:18;;;;;;;6.30;0.90;;;;;;;10.01;58.25;99003.97;4829131;29;113244;-82
2024/02/23 07:57:45;;;;;;;5.47;0.77;;;;;;;10.04;58.32;99003.75;4854234;29;122717;-82
2024/02/23 08:00:17;;;;;;;4.65;0.70;;;;;;;10.09;58.20;99004.25;4849228;29;124798;-82
2024/02/23 08:02:44;;;;;;;1.67;0.70;;;;;;;10.13;58.13;99003.06;4863750;29;114818;-82
2024/02/23 08:05:16;;;;;;;2.53;0.73;;;;;;;10.17;58.13;99004.56;4845063;29;112529;-81
2024/02/23 08:07:44;;;;;;;2.85;0.60;;;;;;;10.22;58.05;98991.81;4841174;29;124608;-81
2024/02/23 08:10:14;;;;;;;6.53;0.70;;;;;;;10.27;58.04;98994.97;4846605;29;122079;-82
2024/02/23 08:12:41;;;;;;;3.58;0.70;;;;;;;10.33;58.11;98988.44;4848764;29;114774;-81
2024/02/23 08:15:15;;;;;;;7.00;0.70;;;;;;;10.37;58.05;98999.63;4842698;29;113452;-81
2024/02/23 08:17:42;;;;;;;3.05;0.60;;;;;;;10.39;57.83;99003.00;4873082;28;123621;-81
2024/02/23 08:20:24;;;;;;;7.45;0.90;;;;;;;10.41;57.96;98995.81;4843151;29;121595;-82
2024/02/23 08:22:56;;;;;;;2.22;0.75;;;;;;;10.42;57.73;98992.22;4841574;29;114431;-82
2024/02/23 08:36:05;;;;;;;3.25;0.82;;;;;;;10.56;57.96;98988.53;5146120;27;96481;-80
2024/02/23 08:38:33;;;;;;;1.33;0.43;;;;;;;10.54;57.91;98991.28;5121843;27;106373;-81
2024/02/23 08:41:00;;;;;;;3.08;0.60;;;;;;;10.54;57.97;98996.56;5115229;27;124254;-81
2024/02/23 08:43:28;;;;;;;1.75;0.70;;;;;;;10.55;58.18;98986.81;5126993;27;123614;-81
2024/02/23 08:46:22;;;;;;;4.55;0.70;;;;;;;10.57;58.00;98983.13;5123444;27;105696;-81
2024/02/23 08:48:49;;;;;;;4.25;0.80;;;;;;;10.59;58.01;98983.84;5122766;27;106947;-81
2024/02/23 08:51:17;;;;;;;3.42;0.85;;;;;;;10.61;57.96;98971.34;5124059;27;123739;-81
2024/02/23 08:53:44;;;;;;;3.72;0.68;;;;;;;10.64;57.81;98973.75;5127811;27;123463;-81
2024/02/23 08:56:17;;;;;;;4.95;0.60;;;;;;;10.68;57.65;98977.84;5114061;27;108523;-81
2024/02/23 08:58:44;;;;;;;4.40;0.60;;;;;;;10.71;57.87;98972.31;5118939;27;107558;-81
2024/02/23 09:01:12;;;;;;;3.95;0.98;;;;;;;10.76;57.59;98984.38;5125829;27;122169;-81
2024/02/23 09:03:54;;;;;;;2.90;0.60;;;;;;;10.78;57.61;98987.75;5122947;27;123234;-81
2024/02/23 09:06:22;;;;;;;2.97;0.60;;;;;;;10.79;57.74;98981.47;5102069;27;105521;-81
2024/02/23 09:09:08;;;;;;;2.38;0.65;;;;;;;10.82;57.71;98968.84;5109655;27;107283;-81
2024/02/23 09:11:36;;;;;;;4.30;0.88;;;;;;;10.85;57.45;98978.38;5123178;27;124290;-81
2024/02/23 09:14:08;;;;;;;5.50;0.68;;;;;;;10.88;57.55;98975.50;5120913;27;123950;-81
2024/02/23 09:16:36;;;;;;;3.15;0.50;;;;;;;10.88;57.58;98973.69;5119763;27;108192;-81
2024/02/23 09:19:09;;;;;;;1.63;0.60;;;;;;;10.88;57.58;98981.63;5133612;27;107463;-82
2024/02/23 09:21:37;;;;;;;2.85;0.70;;;;;;;10.90;57.46;98977.06;5123931;27;123576;-81
2024/02/23 09:24:32;;;;;;;2.50;0.95;;;;;;;10.90;57.50;98968.28;5113434;27;123681;-81
2024/02/23 09:26:59;;;;;;;1.98;0.60;;;;;;;10.91;57.37;98972.63;5130481;27;106700;-82
2024/02/23 09:29:53;;;;;;;4.97;0.88;;;;;;;10.91;57.52;98977.91;5127737;27;107679;-82
2024/02/23 09:32:20;;;;;;;3.70;0.70;;;;;;;10.93;57.41;98975.16;5121889;27;123468;-82
2024/02/23 09:34:47;;;;;;;3.13;0.70;;;;;;;10.96;57.60;98978.38;5126281;27;121048;-82
2024/02/23 09:37:21;;;;;;;2.92;0.60;;;;;;;10.97;57.20;98977.44;5122229;27;106838;-82
2024/02/23 09:39:49;;;;;;;5.53;0.82;;;;;;;10.99;57.45;98970.22;5100312;27;105458;-81
2024/02/23 09:42:18;;;;;;;5.63;0.77;;;;;;;11.01;57.21;98978.88;5110400;27;123058;-83
2024/02/23 09:44:46;;;;;;;4.15;0.75;;;;;;;11.02;57.39;98972.63;5115877;27;123350;-81
2024/02/23 09:47:14;;;;;;;1.25;0.52;;;;;;;11.06;57.11;98975.91;5107931;27;105816;-81
2024/02/23 09:49:41;;;;;;;3.05;0.70;;;;;;;11.08;57.15;98985.41;5110776;27;107921;-81
2024/02/23 09:52:09;;;;;;;2.70;0.70;;;;;;;11.10;57.24;98983.47;5107169;27;126523;-81
2024/02/23 09:54:41;;;;;;;2.15;0.60;;;;;;;11.14;57.15;98985.91;5113528;27;123053;-81
2024/02/23 09:57:09;;;;;;;1.88;0.68;;;;;;;11.18;57.32;98990.00;5112549;27;107561;-82
2024/02/23 09:59:38;;;;;;;2.90;0.63;;;;;;;11.22;57.10;98988.78;5115402;27;107366;-81
2024/02/23 10:02:21;;;;;;;4.28;0.70;;;;;;;11.26;57.09;98987.59;5098829;27;124894;-81
2024/02/23 10:04:49;;;;;;;2.58;0.73;;;;;;;11.28;57.00;98993.59;5110490;27;124288;-81
2024/02/23 10:07:17;;;;;;;1.85;0.68;;;;;;;11.29;56.90;98990.00;5114386;27;106900;-81
2024/02/23 10:09:44;;;;;;;1.63;0.60;;;;;;;11.30;57.15;98991.69;5116106;27;108249;-82
2024/02/23 10:12:13;;;;;;;6.82;0.82;;;;;;;11.33;57.24;99004.69;5116463;27;126424;-81
2024/02/23 10:14:44;;;;;;;2.22;0.60;;;;;;;11.36;57.02;99004.47;5117188;27;123543;-81
2024/02/23 10:17:11;;;;;;;1.58;0.70;;;;;;;11.37;56.96;99015.91;5117678;27;106484;-82
2024/02/23 10:19:39;;;;;;;1.20;0.70;;;;;;;11.37;56.95;99016.75;5111502;27;106705;-82
2024/02/23 10:22:06;;;;;;;1.17;0.52;;;;;;;11.38;56.95;99023.75;5104042;27;123911;-82
2024/02/23 10:24:36;;;;;;;2.70;0.70;;;;;;;11.41;56.88;99027.97;5100016;27;122341;-82
2024/02/23 10:27:04;;;;;;;2.15;0.43;;;;;;;11.41;56.83;99012.88;5109334;27;107931;-81
2024/02/23 10:29:31;;;;;;;3.55;0.60;;;;;;;11.40;56.78;99029.78;5114758;27;105213;-82
2024/02/23 10:32:01;;;;;;;1.15;0.60;;;;;;;11.40;56.65;99037.72;5119598;27;122361;-81
2024/02/23 10:34:38;;;;;;;2.95;0.50;;;;;;;11.40;56.70;99037.72;5102376;27;124479;-82
2024/02/23 10:37:08;;;;;;;2.90;0.85;;;;;;;11.38;56.74;99034.34;5114158;27;107355;-81
2024/02/23 10:39:39;;;;;;;1.10;0.60;;;;;;;11.36;56.61;99049.53;5118353;27;107681;-82
2024/02/23 10:42:09;;;;;;;1.48;0.70;;;;;;;11.35;56.67;99055.78;5113421;27;122088;-81
2024/02/23 10:44:37;;;;;;;2.35;0.70;;;;;;;11.34;56.68;99054.09;5093055;27;123425;-82
2024/02/23 10:47:11;;;;;;;1.40;0.50;;;;;;;11.33;56.79;99055.06;5106139;27;107077;-81
2024/02/23 10:49:38;;;;;;;0.70;0.50;;;;;;;11.33;56.64;99057.72;5109822;27;107224;-81
2024/02/23 10:52:07;;;;;;;2.25;0.50;;;;;;;11.34;56.55;99058.53;5117875;27;125023;-82
2024/02/23 10:54:40;;;;;;;3.58;0.60;;;;;;;11.31;56.66;99064.94;5096157;27;123206;-81
2024/02/23 10:57:08;;;;;;;3.03;0.70;;;;;;;11.33;56.60;99068.31;5104729;27;105459;-82
2024/02/23 10:59:35;;;;;;;2.63;0.57;;;;;;;11.32;56.64;99066.63;5114139;27;106834;-82
2024/02/23 11:02:30;;;;;;;2.83;0.80;;;;;;;11.32;56.75;99066.63;5100306;27;122938;-83
2024/02/23 11:04:59;;;;;;;3.80;0.50;;;;;;;11.32;56.73;99053.38;5111164;27;123442;-83
2024/02/23 11:07:29;;;;;;;2.55;0.50;;;;;;;11.32;56.71;99066.63;5122079;27;107103;-83
2024/02/23 11:10:00;;;;;;;3.58;0.65;;;;;;;11.34;56.69;99070.00;5112376;27;106664;-81
2024/02/23 11:12:29;;;;;;;2.25;0.75;;;;;;;11.34;56.78;99062.06;5114129;27;123831;-82
2024/02/23 11:14:59;;;;;;;0.77;0.50;;;;;;;11.34;56.60;99059.41;5112374;27;123773;-81
2024/02/23 11:17:32;;;;;;;1.60;0.57;;;;;;;11.34;56.62;99067.34;5111136;27;108044;-82
2024/02/23 11:20:03;;;;;;;4.90;0.60;;;;;;;11.37;56.82;99069.75;5102693;27;107802;-81
2024/02/23 11:22:40;;;;;;;2.50;0.75;;;;;;;11.37;56.59;99069.75;5112555;27;124981;-83
2024/02/23 11:29:39;;;;;;;1.52;0.60;;;;;;;11.39;56.67;99073.13;5122738;27;107816;-82
2024/02/23 11:32:17;;;;;;;2.67;0.50;;;;;;;11.39;56.56;99067.81;5117584;27;107239;-82
2024/02/23 11:34:57;;;;;;;3.10;0.65;;;;;;;11.41;56.79;99068.56;5110057;27;123810;-83
2024/02/23 11:37:32;;;;;;;2.17;0.80;;;;;;;11.42;56.80;99078.22;5104294;27;125301;-81
2024/02/23 11:40:01;;;;;;;;;;;;;;;11.43;56.79;99073.75;5102394;27;107311;-81
2024/02/23 11:42:31;;;;;;;2.45;0.80;;;;;;;11.47;56.57;99076.06;5104699;27;105389;-83
2024/02/23 11:44:59;;;;;;;2.80;0.77;;;;;;;11.47;56.86;99075.19;5109951;27;123608;-81
2024/02/23 11:47:26;;;;;;;2.13;0.60;;;;;;;11.47;56.61;99080.50;5115815;27;124163;-82
2024/02/23 11:50:01;;;;;;;2.38;0.40;;;;;;;11.47;56.64;99081.34;5105414;27;108215;-81
2024/02/23 11:52:30;;;;;;;3.10;0.73;;;;;;;11.50;56.77;99080.25;5111739;27;107726;-82
2024/02/23 11:54:59;;;;;;;1.52;0.70;;;;;;;11.54;56.66;99080.88;5096274;27;122935;-82
2024/02/23 11:57:26;;;;;;;1.63;0.68;;;;;;;11.58;56.84;99082.31;5105991;27;124659;-81